Iapetos — SVCP7 — position and weather

sailwx.info

Track history (hours):
 
Tides and Currents Weather Stations Pressure Air Temp Water Temp Dewpoint Dewpoint Depression Visibility Wind Speed Wind Dir Waves Ship Positions

Iapetos

Last reported at 2017-Dec-11 12:22 UTC. Time now 2017-Dec-13 01:35 UTC.
Position N 44°03' E 030°20'.

Length 134 m; draft 8 m.

Type: Ship (hazmat cat A). MMSI: 241511000.

Date/timePositionNaut miles runAvg speedWind from/ knotsBaromVisibWave heightAir tempDewpointWater temp
2017-Dec-11 12:22N 44°03' E 030°20'511.7
2017-Dec-11 11:54N 43°58' E 030°20'611.8
2017-Dec-11 11:26N 43°52' E 030°20'1311.5
2017-Dec-11 10:18N 43°39' E 030°20'710.4
2017-Dec-11 09:40N 43°34' E 030°14'211.7
2017-Dec-11 09:27N 43°33' E 030°11'611.6
2017-Dec-11 08:54N 43°30' E 030°04'15911.9
2017-Dec-10 19:32N 40°58' E 028°59'1 8.0
2017-Dec-10 19:28N 40°58' E 028°59'4 8.5
2017-Dec-10 18:57N 40°56' E 028°53'1 1.0
2017-Dec-10 17:37N 40°57' E 028°52'  
Track history (hours):
 
Tides and Currents Weather Stations Pressure Air Temp Water Temp Dewpoint Dewpoint Depression Visibility Wind Speed Wind Dir Waves Ship Positions

Iapetos

Last reported at 2017-Dec-11 12:22 UTC. Time now 2017-Dec-13 01:35 UTC.
Position N 44°03' E 030°20'.

Length 134 m; draft 8 m.

Type: Ship (hazmat cat A). MMSI: 241511000.

Date/timePositionNaut miles runAvg speedWind from/ knotsBaromVisibWave heightAir tempDewpointWater temp
2017-Dec-11 12:22N 44°03' E 030°20'511.7
2017-Dec-11 11:54N 43°58' E 030°20'611.8
2017-Dec-11 11:26N 43°52' E 030°20'1311.5
2017-Dec-11 10:18N 43°39' E 030°20'710.4
2017-Dec-11 09:40N 43°34' E 030°14'211.7
2017-Dec-11 09:27N 43°33' E 030°11'611.6
2017-Dec-11 08:54N 43°30' E 030°04'15911.9
2017-Dec-10 19:32N 40°58' E 028°59'1 8.0
2017-Dec-10 19:28N 40°58' E 028°59'4 8.5
2017-Dec-10 18:57N 40°56' E 028°53'1 1.0
2017-Dec-10 17:37N 40°57' E 028°52'  

Dump ship's entire track history